createdAt,value
2019-03-16T00:01:18.957Z,74.52
2019-03-16T00:03:50.283Z,73.93
2019-03-16T00:06:21.523Z,74.28
2019-03-16T00:08:52.896Z,73.33
2019-03-16T00:11:24.223Z,72.88
2019-03-16T00:13:55.678Z,73.41
2019-03-16T00:16:27.013Z,73.24
2019-03-16T00:18:58.505Z,73.78
2019-03-16T00:21:29.879Z,73.54
2019-03-16T00:24:01.194Z,73.53
2019-03-16T00:26:32.424Z,72.71
2019-03-16T00:29:04.741Z,72.88
2019-03-16T00:31:35.946Z,72.86
2019-03-16T00:34:09.311Z,72.90
2019-03-16T00:36:41.621Z,73.44
2019-03-16T00:39:12.929Z,72.50
2019-03-16T00:41:44.168Z,73.09
2019-03-16T00:44:16.501Z,73.11
2019-03-16T00:46:47.741Z,72.47
2019-03-16T00:49:19.096Z,72.55
2019-03-16T00:51:50.531Z,72.34
2019-03-16T00:54:21.916Z,73.07
2019-03-16T00:56:53.168Z,72.23
2019-03-16T00:59:24.526Z,72.26
2019-03-16T01:01:55.982Z,72.14
2019-03-16T01:04:27.319Z,72.65
2019-03-16T01:07:00.637Z,72.80
2019-03-16T01:09:31.929Z,72.65
2019-03-16T01:12:03.301Z,73.14
2019-03-16T01:14:35.489Z,72.60
2019-03-16T01:17:06.814Z,72.71
2019-03-16T01:19:38.090Z,72.51
2019-03-16T01:22:09.490Z,73.12
2019-03-16T01:24:40.810Z,72.18
2019-03-16T01:27:12.106Z,72.04
2019-03-16T01:29:43.519Z,72.33
2019-03-16T01:32:14.870Z,72.65
2019-03-16T01:34:46.165Z,73.32
2019-03-16T01:37:17.400Z,73.19
2019-03-16T01:39:48.705Z,72.60
2019-03-16T01:42:19.948Z,72.81
2019-03-16T01:44:51.303Z,73.42
2019-03-16T01:47:22.620Z,73.58
2019-03-16T01:49:54.075Z,73.97
2019-03-16T01:52:25.361Z,73.52
2019-03-16T01:54:56.668Z,73.74
2019-03-16T01:57:27.931Z,74.30
2019-03-16T01:59:59.239Z,73.47
2019-03-16T02:02:30.533Z,73.56
2019-03-16T02:05:04.392Z,73.70
2019-03-16T02:07:35.776Z,73.78
2019-03-16T02:10:09.863Z,74.09
2019-03-16T02:12:41.156Z,74.15
2019-03-16T02:15:13.714Z,75.15
2019-03-16T02:17:45.072Z,75.29
2019-03-16T02:20:16.313Z,75.11
2019-03-16T02:22:47.603Z,74.96
2019-03-16T02:25:18.855Z,75.63
2019-03-16T02:27:50.173Z,75.90
2019-03-16T02:30:21.409Z,75.80
2019-03-16T02:32:52.770Z,76.05
2019-03-16T02:35:24.010Z,76.73
2019-03-16T02:37:55.446Z,77.89
2019-03-16T02:40:26.701Z,77.16
2019-03-16T02:42:57.935Z,76.89
2019-03-16T02:45:29.250Z,77.59
2019-03-16T02:48:01.593Z,78.02
2019-03-16T02:50:32.880Z,77.92
2019-03-16T02:53:04.191Z,77.95
2019-03-16T02:55:36.619Z,77.77
2019-03-16T02:58:07.872Z,77.64
2019-03-16T03:00:39.284Z,77.32
2019-03-16T03:03:10.729Z,77.34
2019-03-16T03:05:42.017Z,77.26
2019-03-16T03:08:14.220Z,76.82
2019-03-16T03:10:45.627Z,77.96
2019-03-16T03:13:16.936Z,78.61
2019-03-16T03:15:48.239Z,79.87
2019-03-16T03:18:19.695Z,80.80
2019-03-16T03:20:52.463Z,82.22
2019-03-16T03:23:23.709Z,82.97
2019-03-16T03:25:54.993Z,84.07
2019-03-16T03:28:26.300Z,85.13
2019-03-16T03:30:57.684Z,85.88
2019-03-16T03:33:56.169Z,86.36
2019-03-16T03:36:01.979Z,86.58
2019-03-16T03:38:33.650Z,83.62
2019-03-16T03:41:05.071Z,80.52
2019-03-16T03:43:36.385Z,78.82
2019-03-16T03:46:08.000Z,78.95
2019-03-16T03:48:39.245Z,79.53
2019-03-16T03:51:12.407Z,79.74
2019-03-16T03:53:43.646Z,80.63
2019-03-16T03:56:15.226Z,81.21
2019-03-16T03:58:46.613Z,81.96
2019-03-16T04:01:17.993Z,82.29
2019-03-16T04:03:49.343Z,82.91
2019-03-16T04:06:20.912Z,83.92
2019-03-16T04:08:52.344Z,84.77
2019-03-16T04:11:23.748Z,85.29
2019-03-16T04:13:54.992Z,85.86
2019-03-16T04:16:26.372Z,86.22
2019-03-16T04:18:57.679Z,86.57
2019-03-16T04:21:29.028Z,86.72
2019-03-16T04:24:00.272Z,86.81
2019-03-16T04:26:31.629Z,87.01
2019-03-16T04:29:02.889Z,87.16
2019-03-16T04:31:34.256Z,87.03
2019-03-16T04:34:06.556Z,86.65
2019-03-16T04:36:37.856Z,86.34
2019-03-16T04:39:09.238Z,85.64
2019-03-16T04:41:40.660Z,85.60
2019-03-16T04:44:11.908Z,85.18
2019-03-16T04:46:43.300Z,85.09
2019-03-16T04:49:14.634Z,84.73
2019-03-16T04:51:45.913Z,84.26
2019-03-16T04:54:17.260Z,84.16
2019-03-16T04:56:48.655Z,83.73
2019-03-16T04:59:19.973Z,82.68
2019-03-16T05:01:51.260Z,82.04
2019-03-16T05:04:22.498Z,81.72
2019-03-16T05:06:53.790Z,81.26
2019-03-16T05:09:25.036Z,80.87
2019-03-16T05:11:56.416Z,80.60
2019-03-16T05:14:27.662Z,80.31
2019-03-16T05:16:58.957Z,79.37
2019-03-16T05:19:30.262Z,79.58
2019-03-16T05:22:01.631Z,79.37
2019-03-16T05:24:32.870Z,78.96
2019-03-16T05:27:04.455Z,78.50
2019-03-16T05:29:35.703Z,79.09
2019-03-16T05:32:07.065Z,78.41
2019-03-16T05:34:38.462Z,79.14
2019-03-16T05:37:09.826Z,79.05
2019-03-16T05:39:41.139Z,78.65
2019-03-16T05:42:12.520Z,79.23
2019-03-16T05:44:43.779Z,78.93
2019-03-16T05:47:16.600Z,79.44
2019-03-16T05:49:47.845Z,79.71
2019-03-16T05:52:19.149Z,79.46
2019-03-16T05:54:50.463Z,79.14
2019-03-16T05:57:21.824Z,78.99
2019-03-16T05:59:53.176Z,78.09
2019-03-16T06:02:24.634Z,78.53
2019-03-16T06:05:09.420Z,77.92
2019-03-16T06:07:28.909Z,78.61
2019-03-16T06:10:12.345Z,78.52
2019-03-16T06:12:46.406Z,78.58
2019-03-16T06:15:16.895Z,78.66
2019-03-16T06:17:51.378Z,78.23
2019-03-16T06:20:22.617Z,78.60
2019-03-16T06:22:59.552Z,78.13
2019-03-16T06:25:30.797Z,78.74
2019-03-16T06:28:04.207Z,78.12
2019-03-16T06:30:35.519Z,77.89
2019-03-16T06:33:06.939Z,77.45
2019-03-16T06:35:38.252Z,77.65
2019-03-16T06:38:09.554Z,77.09
2019-03-16T06:40:42.729Z,76.89
2019-03-16T06:43:16.001Z,76.80
2019-03-16T06:45:47.400Z,77.38
2019-03-16T06:48:25.620Z,76.56
2019-03-16T06:50:56.954Z,76.66
2019-03-16T06:53:28.387Z,76.17
2019-03-16T06:56:00.722Z,75.32
2019-03-16T06:58:32.960Z,75.56
2019-03-16T07:01:04.279Z,75.23
2019-03-16T07:03:35.567Z,74.56
2019-03-16T07:06:06.909Z,75.12
2019-03-16T07:08:38.314Z,75.46
2019-03-16T07:11:09.654Z,75.62
2019-03-16T07:13:41.232Z,76.62
2019-03-16T07:16:12.546Z,76.64
2019-03-16T07:18:44.005Z,76.45
2019-03-16T07:21:15.382Z,76.07
2019-03-16T07:23:46.684Z,76.42
2019-03-16T07:26:17.931Z,76.33
2019-03-16T07:28:49.381Z,76.47
2019-03-16T07:31:20.707Z,74.95
2019-03-16T07:33:52.242Z,74.67
2019-03-16T07:36:23.550Z,74.40
2019-03-16T07:38:56.901Z,73.78
2019-03-16T07:41:44.668Z,74.01
2019-03-16T07:44:16.105Z,73.55
2019-03-16T07:46:57.551Z,73.59
2019-03-16T07:49:28.907Z,73.17
2019-03-16T07:52:00.156Z,72.17
2019-03-16T07:54:31.520Z,73.07
2019-03-16T07:57:02.916Z,73.01
2019-03-16T07:59:36.959Z,73.49
2019-03-16T08:02:07.216Z,74.00
2019-03-16T08:04:38.576Z,73.27
2019-03-16T08:07:21.759Z,72.00
2019-03-16T08:09:53.058Z,73.11
2019-03-16T08:12:24.391Z,73.61
2019-03-16T08:14:55.777Z,74.13
2019-03-16T08:17:30.253Z,75.15
2019-03-16T08:20:02.617Z,75.36
2019-03-16T08:22:33.991Z,76.66
2019-03-16T08:25:06.734Z,76.61
2019-03-16T08:27:38.146Z,75.53
2019-03-16T08:30:12.023Z,74.29
2019-03-16T08:32:44.375Z,73.52
2019-03-16T08:35:16.021Z,73.42
2019-03-16T08:37:47.395Z,73.35
2019-03-16T08:40:18.791Z,73.32
2019-03-16T08:42:51.438Z,73.11
2019-03-16T08:45:29.221Z,73.41
2019-03-16T08:48:02.617Z,72.43
2019-03-16T08:50:34.079Z,73.10
2019-03-16T08:53:05.385Z,72.91
2019-03-16T08:55:36.677Z,72.75
2019-03-16T08:58:07.915Z,72.87
2019-03-16T09:00:39.270Z,71.85
2019-03-16T09:03:10.512Z,72.36
2019-03-16T09:05:42.455Z,72.74
2019-03-16T09:08:13.950Z,72.26
2019-03-16T09:10:48.590Z,72.02
2019-03-16T09:13:32.823Z,71.95
2019-03-16T09:16:04.179Z,72.06
2019-03-16T09:18:37.405Z,71.60
2019-03-16T09:21:10.148Z,72.48
2019-03-16T09:23:41.574Z,72.67
2019-03-16T09:26:12.926Z,72.07
2019-03-16T09:28:44.246Z,72.51
2019-03-16T09:31:21.695Z,73.35
2019-03-16T09:33:52.998Z,73.50
2019-03-16T09:36:24.436Z,73.94
2019-03-16T09:38:55.694Z,75.27
2019-03-16T09:41:28.241Z,76.23
2019-03-16T09:44:01.866Z,76.51
2019-03-16T09:46:33.122Z,76.82
2019-03-16T09:49:06.623Z,76.29
2019-03-16T09:51:37.868Z,76.38
2019-03-16T09:54:09.262Z,74.83
2019-03-16T09:56:40.497Z,74.46
2019-03-16T09:59:11.926Z,75.18
2019-03-16T10:01:43.676Z,75.14
2019-03-16T10:04:15.334Z,75.13
2019-03-16T10:06:46.999Z,75.40
2019-03-16T10:09:18.316Z,75.74
2019-03-16T10:11:49.751Z,74.89
2019-03-16T10:14:21.033Z,75.35
2019-03-16T10:16:54.422Z,75.32
2019-03-16T10:19:25.688Z,74.87
2019-03-16T10:24:41.262Z,74.77
2019-03-16T10:27:14.439Z,75.24
2019-03-16T10:29:45.744Z,74.83
2019-03-16T10:32:28.004Z,74.76
2019-03-16T10:34:59.254Z,74.62
2019-03-16T10:37:30.588Z,75.34
2019-03-16T10:40:01.833Z,75.13
2019-03-16T10:42:37.300Z,74.31
2019-03-16T10:45:11.475Z,74.94
2019-03-16T10:47:45.192Z,73.42
2019-03-16T10:50:16.659Z,72.17
2019-03-16T10:52:48.363Z,70.71
2019-03-16T10:55:19.778Z,71.89
2019-03-16T10:57:51.334Z,70.17
2019-03-16T11:00:22.682Z,69.63
2019-03-16T11:02:54.627Z,68.99
2019-03-16T11:05:26.012Z,68.05
2019-03-16T11:07:57.379Z,67.16
2019-03-16T11:10:28.736Z,67.74
2019-03-16T11:13:00.049Z,65.56
2019-03-16T11:15:33.264Z,67.75
2019-03-16T11:18:04.600Z,67.56
2019-03-16T11:20:36.015Z,67.39
2019-03-16T11:23:07.326Z,66.96
2019-03-16T11:25:40.876Z,67.28
2019-03-16T11:28:12.097Z,68.22
2019-03-16T11:30:43.336Z,68.29
2019-03-16T11:33:14.641Z,68.00
2019-03-16T11:35:46.040Z,66.87
2019-03-16T11:38:17.348Z,66.15
2019-03-16T11:40:48.810Z,67.59
2019-03-16T11:43:20.120Z,66.29
2019-03-16T11:45:51.563Z,64.80
2019-03-16T11:48:22.897Z,63.72
2019-03-16T11:50:54.398Z,64.18
2019-03-16T11:53:31.635Z,63.36
2019-03-16T11:56:02.868Z,62.35
2019-03-16T11:58:34.397Z,63.79
2019-03-16T12:01:05.929Z,63.27
2019-03-16T12:03:37.731Z,63.48
2019-03-16T12:06:11.772Z,64.40
2019-03-16T12:08:44.733Z,64.88
2019-03-16T12:11:16.083Z,62.92
2019-03-16T12:13:48.973Z,62.27
2019-03-16T12:16:20.521Z,62.42
2019-03-16T12:18:51.833Z,62.24
2019-03-16T12:21:23.411Z,63.27
2019-03-16T12:23:54.812Z,62.85
2019-03-16T12:26:26.048Z,64.18
2019-03-16T12:28:57.471Z,62.59
2019-03-16T12:31:28.818Z,61.92
2019-03-16T12:34:00.141Z,62.07
2019-03-16T12:36:31.395Z,62.41
2019-03-16T12:39:04.753Z,62.90
2019-03-16T12:41:36.062Z,62.73
2019-03-16T12:44:14.176Z,63.10
2019-03-16T12:46:45.464Z,62.19
2019-03-16T12:49:16.786Z,61.94
2019-03-16T12:51:48.340Z,62.24
2019-03-16T12:54:19.919Z,62.25
2019-03-16T12:56:52.082Z,62.90
2019-03-16T12:59:23.396Z,62.69
2019-03-16T13:01:57.756Z,61.60
2019-03-16T13:04:29.166Z,60.44
2019-03-16T13:07:00.536Z,61.07
2019-03-16T13:09:31.975Z,62.43
2019-03-16T13:12:03.319Z,61.98
2019-03-16T13:14:34.670Z,62.60
2019-03-16T13:17:05.905Z,62.94
2019-03-16T13:19:36.156Z,62.86
2019-03-16T13:22:07.497Z,63.41
2019-03-16T13:24:38.756Z,63.16
2019-03-16T13:27:10.225Z,63.34
2019-03-16T13:29:42.557Z,64.01
2019-03-16T13:32:14.936Z,63.92
2019-03-16T13:34:47.515Z,64.60
2019-03-16T13:37:20.550Z,65.03
2019-03-16T13:39:52.009Z,64.50
2019-03-16T13:42:23.409Z,64.83
2019-03-16T13:44:54.765Z,64.42
2019-03-16T13:47:26.083Z,63.51
2019-03-16T13:49:57.589Z,63.42
2019-03-16T13:52:28.859Z,64.16
2019-03-16T13:55:00.143Z,63.44
2019-03-16T13:57:32.774Z,63.74
2019-03-16T14:00:11.958Z,62.63
2019-03-16T14:02:39.855Z,62.70
2019-03-16T14:05:12.815Z,60.84
2019-03-16T14:07:44.872Z,61.07
2019-03-16T14:10:26.907Z,59.12
2019-03-16T14:13:00.330Z,58.61
2019-03-16T14:15:31.777Z,60.97
2019-03-16T14:18:03.084Z,59.26
2019-03-16T14:20:34.520Z,58.05
2019-03-16T14:23:06.221Z,57.40
2019-03-16T14:25:38.811Z,57.97
2019-03-16T14:28:10.085Z,56.82
2019-03-16T14:30:44.965Z,58.18
2019-03-16T14:33:14.527Z,56.92
2019-03-16T14:35:45.831Z,57.02
2019-03-16T14:38:17.257Z,55.89
2019-03-16T14:40:50.251Z,56.52
2019-03-16T14:43:23.179Z,57.93
2019-03-16T14:45:54.632Z,58.25
2019-03-16T14:48:27.361Z,57.48
2019-03-16T14:50:58.955Z,58.30
2019-03-16T14:53:30.312Z,58.67
2019-03-16T14:56:01.534Z,58.50
2019-03-16T14:58:32.940Z,59.42
2019-03-16T15:01:04.390Z,59.52
2019-03-16T15:03:35.758Z,58.91
2019-03-16T15:06:10.190Z,60.35
2019-03-16T15:08:42.595Z,60.12
2019-03-16T15:11:15.040Z,60.10
2019-03-16T15:13:46.885Z,61.24
2019-03-16T15:16:18.225Z,59.97
2019-03-16T15:18:51.318Z,61.43
2019-03-16T15:21:22.803Z,61.23
2019-03-16T15:23:56.837Z,60.18
2019-03-16T15:26:28.458Z,61.58
2019-03-16T15:28:59.731Z,60.74
2019-03-16T15:31:33.067Z,61.19
2019-03-16T15:34:06.187Z,60.67
2019-03-16T15:36:40.825Z,61.43
2019-03-16T15:39:10.935Z,60.90
2019-03-16T15:41:42.299Z,60.99
2019-03-16T15:44:13.533Z,61.21
2019-03-16T15:46:44.864Z,61.94
2019-03-16T15:49:16.085Z,61.86
2019-03-16T15:51:47.465Z,61.92
2019-03-16T15:54:18.832Z,61.17
2019-03-16T15:56:50.120Z,61.45
2019-03-16T15:59:41.332Z,60.25
2019-03-16T16:02:12.765Z,60.25
2019-03-16T16:04:45.706Z,60.56
2019-03-16T16:07:20.943Z,59.55
2019-03-16T16:09:52.172Z,58.01
2019-03-16T16:12:23.594Z,57.91
2019-03-16T16:14:54.937Z,57.47
2019-03-16T16:17:26.328Z,56.98
2019-03-16T16:19:57.581Z,56.67
2019-03-16T16:22:28.878Z,56.79
2019-03-16T16:25:02.767Z,56.55
2019-03-16T16:27:34.347Z,56.30
2019-03-16T16:30:13.562Z,56.04
2019-03-16T16:32:45.133Z,55.80
2019-03-16T16:35:17.131Z,56.52
2019-03-16T16:37:51.626Z,55.98
2019-03-16T16:40:23.252Z,56.16
2019-03-16T16:42:56.182Z,55.66
2019-03-16T16:45:27.589Z,55.80
2019-03-16T16:47:58.926Z,56.17
2019-03-16T16:50:30.243Z,57.09
2019-03-16T16:53:01.501Z,57.48
2019-03-16T16:55:32.899Z,57.43
2019-03-16T16:58:04.364Z,58.52
2019-03-16T17:00:36.832Z,59.18
2019-03-16T17:03:08.203Z,60.11
2019-03-16T17:05:39.514Z,60.39
2019-03-16T17:08:14.748Z,59.91
2019-03-16T17:10:46.178Z,60.53
2019-03-16T17:13:17.634Z,59.83
2019-03-16T17:15:49.110Z,60.38
2019-03-16T17:18:20.554Z,60.87
2019-03-16T17:20:54.939Z,60.85
2019-03-16T17:23:29.361Z,60.94
2019-03-16T17:26:01.595Z,61.72
2019-03-16T17:28:32.865Z,61.84
2019-03-16T17:31:09.042Z,61.77
2019-03-16T17:33:41.548Z,62.21
2019-03-16T17:36:12.970Z,62.21
2019-03-16T17:38:44.488Z,62.25
2019-03-16T17:41:21.595Z,62.84
2019-03-16T17:43:59.204Z,62.85
2019-03-16T17:46:31.592Z,63.55
2019-03-16T17:49:02.996Z,63.75
2019-03-16T17:51:44.660Z,64.21
2019-03-16T17:54:17.088Z,64.57
2019-03-16T17:56:48.521Z,65.11
2019-03-16T17:59:19.867Z,65.09
2019-03-16T18:01:56.009Z,64.24
2019-03-16T18:04:27.947Z,64.18
2019-03-16T18:06:59.704Z,63.18
2019-03-16T18:09:33.830Z,64.08
2019-03-16T18:12:05.292Z,64.57
2019-03-16T18:14:37.639Z,64.74
2019-03-16T18:17:08.979Z,65.10
2019-03-16T18:19:40.536Z,65.62
2019-03-16T18:22:31.392Z,65.08
2019-03-16T18:25:06.187Z,65.49
2019-03-16T18:27:37.854Z,65.96
2019-03-16T18:30:24.368Z,66.29
2019-03-16T18:32:55.609Z,66.40
2019-03-16T18:35:27.010Z,66.74
2019-03-16T18:37:58.321Z,66.91
2019-03-16T18:40:31.685Z,66.90
2019-03-16T18:43:05.760Z,66.68
2019-03-16T18:45:37.197Z,66.64
2019-03-16T18:48:10.761Z,66.66
2019-03-16T18:50:42.209Z,66.21
2019-03-16T18:53:13.560Z,65.68
2019-03-16T18:55:44.919Z,65.72
2019-03-16T18:58:36.254Z,65.82
2019-03-16T19:00:57.493Z,65.86
2019-03-16T19:03:28.788Z,66.16
2019-03-16T19:06:00.291Z,66.27
2019-03-16T19:08:31.618Z,66.22
2019-03-16T19:11:03.008Z,66.41
2019-03-16T19:13:34.898Z,66.54
2019-03-16T19:16:06.194Z,66.65
2019-03-16T19:18:37.564Z,66.47
2019-03-16T19:21:08.903Z,66.86
2019-03-16T19:23:40.504Z,66.87
2019-03-16T19:26:12.182Z,67.07
2019-03-16T19:28:44.539Z,67.14
2019-03-16T19:31:15.890Z,67.11
2019-03-16T19:33:47.337Z,67.24
2019-03-16T19:36:18.796Z,67.49
2019-03-16T19:38:50.812Z,67.51
2019-03-16T19:41:24.071Z,67.25
2019-03-16T19:43:55.751Z,67.44
2019-03-16T19:46:27.154Z,67.75
2019-03-16T19:48:58.476Z,67.69
2019-03-16T19:51:30.018Z,67.84
2019-03-16T19:54:02.033Z,67.81
2019-03-16T19:56:33.381Z,68.00
2019-03-16T19:59:04.932Z,68.08
2019-03-16T20:01:36.317Z,68.30
2019-03-16T20:04:09.280Z,68.32
2019-03-16T20:06:40.583Z,68.16
2019-03-16T20:09:12.323Z,68.27
2019-03-16T20:11:43.778Z,68.28
2019-03-16T20:14:15.083Z,68.26
2019-03-16T20:16:46.511Z,68.07
2019-03-16T20:19:17.747Z,68.01
2019-03-16T20:21:49.126Z,68.12
2019-03-16T20:24:20.369Z,68.07
2019-03-16T20:26:53.808Z,68.24
2019-03-16T20:29:25.937Z,68.23
2019-03-16T20:31:57.224Z,68.28
2019-03-16T20:34:32.046Z,68.61
2019-03-16T20:37:04.911Z,68.58
2019-03-16T20:39:36.327Z,68.45
2019-03-16T20:42:09.831Z,68.30
2019-03-16T20:44:41.127Z,68.40
2019-03-16T20:47:13.586Z,68.19
2019-03-16T20:49:46.409Z,68.12
2019-03-16T20:52:17.856Z,68.22
2019-03-16T20:54:49.450Z,68.16
2019-03-16T20:57:20.905Z,68.08
2019-03-16T20:59:53.178Z,68.29
2019-03-16T21:02:24.428Z,68.07
2019-03-16T21:04:55.702Z,68.09
2019-03-16T21:07:27.015Z,67.73
2019-03-16T21:09:58.331Z,67.95
2019-03-16T21:12:29.937Z,67.81
2019-03-16T21:15:03.361Z,68.00
2019-03-16T21:17:34.726Z,68.05
2019-03-16T21:20:11.070Z,67.92
2019-03-16T21:22:42.633Z,67.77
2019-03-16T21:25:21.051Z,68.03
2019-03-16T21:27:52.305Z,68.15
2019-03-16T21:30:24.731Z,67.77
2019-03-16T21:32:56.174Z,67.73
2019-03-16T21:35:27.705Z,67.62
2019-03-16T21:37:59.294Z,67.75
2019-03-16T21:40:31.785Z,67.72
2019-03-16T21:43:03.152Z,67.41
2019-03-16T21:45:34.406Z,67.49
2019-03-16T21:48:06.199Z,67.67
2019-03-16T21:50:37.711Z,67.74
2019-03-16T21:53:09.142Z,67.28
2019-03-16T21:55:41.517Z,67.46
2019-03-16T21:58:12.886Z,67.17
2019-03-16T22:00:44.267Z,67.04
2019-03-16T22:03:15.886Z,67.14
2019-03-16T22:05:47.275Z,66.87
2019-03-16T22:08:18.548Z,66.73
2019-03-16T22:10:49.852Z,66.59
2019-03-16T22:13:21.289Z,66.66
2019-03-16T22:15:53.974Z,66.52
2019-03-16T22:18:25.343Z,66.85
2019-03-16T22:20:56.748Z,66.73
2019-03-16T22:23:28.148Z,66.54
2019-03-16T22:25:59.377Z,66.55
2019-03-16T22:28:30.743Z,66.22
2019-03-16T22:31:02.937Z,66.26
2019-03-16T22:33:34.950Z,66.29
2019-03-16T22:36:06.241Z,66.15
2019-03-16T22:38:38.627Z,66.35
2019-03-16T22:41:09.860Z,66.03
2019-03-16T22:43:43.146Z,65.88
2019-03-16T22:46:14.450Z,65.96
2019-03-16T22:48:45.769Z,66.02
2019-03-16T22:51:17.050Z,65.88
2019-03-16T22:53:48.335Z,65.74
2019-03-16T22:56:19.589Z,65.70
2019-03-16T22:58:50.975Z,65.54
2019-03-16T23:01:23.513Z,65.71
2019-03-16T23:04:06.424Z,65.64
2019-03-16T23:06:28.442Z,65.54
2019-03-16T23:08:59.777Z,65.74
2019-03-16T23:11:31.181Z,65.55
2019-03-16T23:14:03.853Z,65.51
2019-03-16T23:16:35.244Z,65.72
2019-03-16T23:19:08.888Z,65.63
2019-03-16T23:21:40.119Z,65.82
2019-03-16T23:24:11.549Z,65.66
2019-03-16T23:26:43.204Z,65.75
2019-03-16T23:29:14.544Z,65.44
2019-03-16T23:31:45.987Z,65.41
2019-03-16T23:34:19.386Z,65.45
2019-03-16T23:36:52.125Z,65.51
2019-03-16T23:39:23.426Z,65.45
2019-03-16T23:41:54.725Z,65.49
2019-03-16T23:44:26.081Z,65.60
2019-03-16T23:46:57.380Z,65.45
2019-03-16T23:49:28.729Z,65.54
2019-03-16T23:51:59.959Z,65.98
2019-03-16T23:54:31.376Z,65.87
2019-03-16T23:57:02.622Z,65.69
2019-03-16T23:59:34.063Z,65.79
